KCOD/COD METAR and TAF weather

Enter ICAO airport designator
Station Type Date Time Source
KCOD METAR 2019/04/19 20:56 UTC NOAA

KCOD 192056Z AUTO 29010G14KT 10SM CLR 23/M01 A2997 RMK AO2 SLP109 T02331011 58028


Station Type Date Time Source
KCOD Decoded METAR 2019/04/19 20:56 UTC NOAA

Cody, WY, United States (KCOD) 44-31N 109-01W 1553M
Apr 19, 2019 - 04:56 PM EDT / 2019.04.19 2056 UTC
Wind: from the WNW (290 degrees) at 12 MPH (10 KT) gusting to 16 MPH (14 KT):0
Visibility: 10 mile(s):0
Sky conditions: clear
Temperature: 73.9 F (23.3 C)
Dew Point: 30.0 F (-1.1 C)
Relative Humidity: 19%
Pressure (altimeter): 29.97 in. Hg (1014 hPa)
Pressure tendency: 0.08 inches (2.8 hPa) lower than three hours ago
ob: KCOD 192056Z AUTO 29010G14KT 10SM CLR 23/M01 A2997 RMK AO2 SLP109 T02331011 58028
cycle: 21

Station Type Date Time Source
KCOD TAF 2019/04/19 18:22 UTC NOAA

TAF KCOD 191720Z 1918/2018 23012G20KT P6SM SCT250
FM200300 24010G18KT P6SM SCT090
FM201000 23005KT P6SM SCT090 BKN200
FM201700 03006KT P6SM VCSH OVC150
AMD LTD TO CLD VIS AND WIND

Example: see airport list